Time;durP1;ratioP1;P1;durP2;ratioP2;P2;SDS_P1;SDS_P2;PMS_P1;PMS_P2;Temp;Humidity;BMP_temperature;BMP_pressure;BME280_temperature;BME280_humidity;BME280_pressure;Samples;Min_cycle;Max_cycle;Signal;HPM_P1;HPM_P2
2021/05/08 00:02:24;;;;;;;1.45;1.25;;;26.50;79.80;;;;;;4993313;28;20038;-78
2021/05/08 00:04:51;;;;;;;4.38;1.67;;;26.10;82.80;;;;;;4999349;28;20033;-78
2021/05/08 00:07:19;;;;;;;2.00;1.60;;;26.40;83.50;;;;;;4998834;28;20068;-77
2021/05/08 00:09:46;;;;;;;2.67;1.65;;;26.80;84.30;;;;;;4995172;28;20031;-78
2021/05/08 00:12:14;;;;;;;2.60;2.03;;;27.40;82.30;;;;;;4999971;28;20022;-78
2021/05/08 00:14:41;;;;;;;6.65;2.88;;;27.80;80.80;;;;;;4997834;28;20056;-76
2021/05/08 00:17:10;;;;;;;2.30;2.10;;;28.20;80.50;;;;;;4996001;28;20083;-73
2021/05/08 00:19:37;;;;;;;3.05;1.73;;;28.60;78.20;;;;;;4989527;28;20114;-73
2021/05/08 00:22:05;;;;;;;1.45;1.10;;;28.60;77.20;;;;;;4999948;28;20088;-73
2021/05/08 00:24:32;;;;;;;2.00;1.42;;;28.20;76.20;;;;;;4997772;28;20114;-74
2021/05/08 00:27:00;;;;;;;1.63;1.08;;;27.60;74.60;;;;;;4998177;28;20034;-72
2021/05/08 00:29:27;;;;;;;3.42;1.35;;;26.70;79.10;;;;;;4988644;28;20027;-74
2021/05/08 00:31:54;;;;;;;1.77;1.15;;;25.80;81.10;;;;;;4989075;28;20057;-73
2021/05/08 00:34:22;;;;;;;1.90;0.88;;;25.40;82.50;;;;;;4996821;28;20346;-73
2021/05/08 00:36:49;;;;;;;1.77;1.23;;;25.80;84.20;;;;;;4998082;28;20420;-73
2021/05/08 00:39:16;;;;;;;1.13;0.90;;;25.50;82.80;;;;;;4997054;28;20388;-72
2021/05/08 00:41:44;;;;;;;1.73;0.98;;;25.50;83.90;;;;;;4987764;28;20034;-72
2021/05/08 00:44:11;;;;;;;1.15;0.68;;;25.40;83.80;;;;;;4999585;28;20046;-74
2021/05/08 00:46:39;;;;;;;1.98;0.85;;;25.60;83.20;;;;;;5000498;28;20147;-74
2021/05/08 00:49:06;;;;;;;1.15;0.77;;;25.90;84.00;;;;;;4995342;28;20057;-73
2021/05/08 00:51:33;;;;;;;1.95;0.50;;;26.40;82.80;;;;;;4994040;28;20041;-75
2021/05/08 00:54:01;;;;;;;4.85;0.90;;;26.80;80.60;;;;;;4994656;28;20503;-73
2021/05/08 00:56:29;;;;;;;0.60;0.60;;;27.20;78.50;;;;;;4989911;28;20038;-72
2021/05/08 00:58:56;;;;;;;1.50;0.70;;;27.50;78.40;;;;;;4993524;28;20034;-75
2021/05/08 01:01:24;;;;;;;1.23;0.70;;;26.90;79.20;;;;;;4994688;28;20035;-73
2021/05/08 01:03:51;;;;;;;0.98;0.50;;;26.20;82.10;;;;;;4986965;28;20041;-74
2021/05/08 01:06:19;;;;;;;1.30;0.45;;;25.60;82.90;;;;;;4990667;28;20112;-74
2021/05/08 01:08:46;;;;;;;1.13;0.50;;;25.10;83.70;;;;;;4992091;28;20038;-74
2021/05/08 01:11:14;;;;;;;0.40;0.30;;;24.60;84.30;;;;;;4990808;28;20109;-73
2021/05/08 01:13:41;;;;;;;1.10;0.40;;;24.40;89.00;;;;;;4990938;28;20026;-73
2021/05/08 01:16:09;;;;;;;1.02;0.40;;;24.20;89.30;;;;;;4994412;28;20708;-73
2021/05/08 01:18:36;;;;;;;0.65;0.30;;;24.10;89.00;;;;;;4987660;28;20029;-73
2021/05/08 01:21:09;;;;;;;0.50;0.30;;;24.10;88.10;;;;;;4994172;28;20025;-73
2021/05/08 01:23:37;;;;;;;0.90;0.40;;;23.90;89.20;;;;;;4991961;28;20025;-72
2021/05/08 01:26:04;;;;;;;1.85;0.60;;;24.30;89.90;;;;;;4991635;28;20397;-72
2021/05/08 01:28:31;;;;;;;1.92;0.40;;;25.10;86.70;;;;;;4997459;28;20105;-72
2021/05/08 01:30:59;;;;;;;1.23;0.40;;;26.40;83.00;;;;;;4992619;28;22049;-72
2021/05/08 01:33:26;;;;;;;0.93;0.50;;;26.40;82.00;;;;;;4990700;28;20045;-72
2021/05/08 01:35:56;;;;;;;0.63;0.43;;;26.20;81.90;;;;;;4992617;28;20022;-72
2021/05/08 01:38:25;;;;;;;0.88;0.43;;;26.20;81.70;;;;;;5003275;28;20041;-72
2021/05/08 01:41:06;;;;;;;1.58;0.82;;;26.40;83.00;;;;;;4993613;28;20029;-73
2021/05/08 01:43:34;;;;;;;0.80;0.40;;;26.90;78.90;;;;;;4988713;28;20042;-73
2021/05/08 01:46:01;;;;;;;1.10;0.47;;;27.40;77.40;;;;;;4990160;28;20706;-75
2021/05/08 01:48:30;;;;;;;1.67;0.50;;;28.20;74.10;;;;;;4994639;28;20488;-74
2021/05/08 01:50:58;;;;;;;1.10;0.30;;;28.80;73.70;;;;;;5003056;28;20026;-73
2021/05/08 01:53:26;;;;;;;0.70;0.38;;;29.40;72.10;;;;;;4995004;28;20034;-72
2021/05/08 01:55:54;;;;;;;1.35;0.35;;;30.30;69.50;;;;;;4992966;28;20946;-73
2021/05/08 01:58:22;;;;;;;1.30;0.50;;;30.10;67.30;;;;;;4996018;28;20034;-75
2021/05/08 02:00:50;;;;;;;1.23;0.43;;;30.20;65.30;;;;;;4992721;28;20025;-74
2021/05/08 02:03:18;;;;;;;1.02;0.43;;;30.20;65.50;;;;;;4992814;28;20037;-73
2021/05/08 02:05:47;;;;;;;0.60;0.57;;;30.20;65.20;;;;;;4992143;28;20026;-73
2021/05/08 02:08:15;;;;;;;2.38;0.90;;;29.40;64.10;;;;;;4996317;28;20033;-73
2021/05/08 02:10:44;;;;;;;2.53;0.60;;;29.40;66.20;;;;;;4993552;28;20045;-73
2021/05/08 02:13:13;;;;;;;1.60;0.50;;;28.70;67.60;;;;;;4996847;28;20034;-73
2021/05/08 02:15:41;;;;;;;0.60;0.47;;;27.70;69.50;;;;;;4998965;28;20034;-74
2021/05/08 02:18:09;;;;;;;3.13;0.73;;;27.40;73.20;;;;;;4998915;28;20037;-76
2021/05/08 02:20:43;;;;;;;1.48;0.82;;;27.10;73.60;;;;;;4996126;28;20470;-73
2021/05/08 02:23:12;;;;;;;1.67;0.60;;;26.90;74.20;;;;;;4993357;28;20366;-73
2021/05/08 02:25:41;;;;;;;1.27;0.60;;;27.40;76.10;;;;;;4998859;28;20339;-74
2021/05/08 02:28:09;;;;;;;3.67;1.13;;;27.70;71.60;;;;;;5002954;28;20035;-75
2021/05/08 02:30:39;;;;;;;1.70;1.13;;;27.70;71.00;;;;;;4993518;28;20683;-75
2021/05/08 02:33:07;;;;;;;1.55;0.80;;;28.00;71.00;;;;;;4997893;28;20039;-75
2021/05/08 02:35:36;;;;;;;2.08;0.82;;;28.60;68.00;;;;;;4996226;28;20078;-75
2021/05/08 02:38:05;;;;;;;1.63;0.73;;;29.40;68.00;;;;;;4999057;28;20038;-73
2021/05/08 02:40:38;;;;;;;1.42;0.80;;;29.90;63.60;;;;;;5000312;28;20026;-74
2021/05/08 02:43:08;;;;;;;3.40;1.00;;;30.00;63.40;;;;;;4998995;28;20033;-74
2021/05/08 02:45:36;;;;;;;0.95;0.60;;;30.00;62.20;;;;;;4994082;28;20061;-75
2021/05/08 02:48:04;;;;;;;0.50;0.40;;;29.40;63.00;;;;;;5001115;28;20383;-73
2021/05/08 02:50:31;;;;;;;1.23;0.75;;;28.50;64.60;;;;;;4997573;28;20041;-73
2021/05/08 02:52:59;;;;;;;1.98;0.75;;;27.20;68.00;;;;;;4998205;28;20676;-73
2021/05/08 02:55:26;;;;;;;1.08;0.80;;;26.20;72.60;;;;;;5004010;28;20501;-74
2021/05/08 02:57:53;;;;;;;1.83;0.70;;;25.70;74.10;;;;;;4998062;28;20050;-73
2021/05/08 03:00:21;;;;;;;1.67;0.55;;;25.90;76.50;;;;;;5003775;28;20022;-75
2021/05/08 03:02:49;;;;;;;0.50;0.50;;;26.80;72.60;;;;;;4995898;28;20030;-73
2021/05/08 03:05:16;;;;;;;2.10;0.60;;;27.80;70.80;;;;;;5003807;28;20525;-73
2021/05/08 03:07:44;;;;;;;2.53;0.88;;;28.30;69.50;;;;;;5000697;28;20026;-73
2021/05/08 03:10:13;;;;;;;1.15;0.57;;;28.80;68.40;;;;;;4994469;28;20118;-74
2021/05/08 03:12:40;;;;;;;0.82;0.45;;;29.80;71.70;;;;;;5000082;28;20058;-73
2021/05/08 03:15:08;;;;;;;1.55;0.60;;;30.20;64.10;;;;;;4997342;28;20030;-74
2021/05/08 03:17:36;;;;;;;1.80;0.70;;;30.10;65.40;;;;;;5002722;28;20119;-74
2021/05/08 03:20:04;;;;;;;1.42;0.90;;;30.20;64.60;;;;;;5004795;28;20052;-73
2021/05/08 03:22:32;;;;;;;3.25;0.77;;;30.00;60.50;;;;;;4992478;28;20034;-73
2021/05/08 03:24:59;;;;;;;2.58;0.85;;;29.70;67.20;;;;;;4996488;28;20029;-73
2021/05/08 03:27:27;;;;;;;0.70;0.45;;;29.60;66.00;;;;;;5001857;28;20028;-73
2021/05/08 03:29:54;;;;;;;4.45;0.80;;;29.50;62.80;;;;;;5000365;28;20022;-73
2021/05/08 03:32:21;;;;;;;1.05;0.70;;;29.50;67.30;;;;;;4994478;28;20508;-72
2021/05/08 03:34:49;;;;;;;1.55;0.63;;;29.40;66.10;;;;;;5003000;28;20021;-74
2021/05/08 03:37:16;;;;;;;0.63;0.40;;;29.50;66.30;;;;;;4997282;28;20441;-73
2021/05/08 03:39:44;;;;;;;1.63;0.95;;;29.30;63.00;;;;;;4998507;28;20030;-74
2021/05/08 03:42:11;;;;;;;1.67;0.60;;;29.10;62.80;;;;;;4998548;28;20022;-74
2021/05/08 03:44:39;;;;;;;0.50;0.40;;;28.50;64.40;;;;;;4997132;28;20038;-73
2021/05/08 03:47:09;;;;;;;0.70;0.40;;;28.50;66.20;;;;;;4994862;28;20026;-73
2021/05/08 03:49:40;;;;;;;1.30;0.57;;;28.30;69.30;;;;;;4997178;28;20045;-74
2021/05/08 03:52:07;;;;;;;0.88;0.50;;;28.00;65.80;;;;;;4996086;28;20022;-74
2021/05/08 03:54:36;;;;;;;0.63;0.40;;;27.70;66.50;;;;;;4999112;28;20029;-75
2021/05/08 03:57:05;;;;;;;1.40;0.68;;;27.80;69.60;;;;;;4998170;28;20097;-74
2021/05/08 03:59:32;;;;;;;0.70;0.60;;;27.80;67.80;;;;;;5002796;28;20354;-74
2021/05/08 04:02:00;;;;;;;1.77;0.73;;;27.80;68.80;;;;;;4995058;28;20600;-74
2021/05/08 04:04:28;;;;;;;2.45;0.60;;;27.60;69.40;;;;;;4993959;28;20057;-74
2021/05/08 04:06:56;;;;;;;1.52;0.50;;;27.40;68.40;;;;;;4995920;28;20034;-74
2021/05/08 04:09:23;;;;;;;1.60;0.52;;;27.20;70.90;;;;;;4995244;28;20025;-75
2021/05/08 04:11:51;;;;;;;1.05;0.50;;;26.90;68.90;;;;;;4995908;28;20038;-75
2021/05/08 04:14:18;;;;;;;0.98;0.50;;;26.80;70.00;;;;;;4999308;28;20036;-74
2021/05/08 04:16:46;;;;;;;1.02;0.50;;;26.70;69.70;;;;;;4995231;28;20037;-73
2021/05/08 04:19:14;;;;;;;0.70;0.40;;;26.70;71.70;;;;;;4996442;28;20388;-73
2021/05/08 04:21:41;;;;;;;0.70;0.47;;;26.80;70.00;;;;;;4996931;28;20064;-73
2021/05/08 04:24:09;;;;;;;1.42;0.50;;;26.80;71.30;;;;;;4999452;28;20034;-73
2021/05/08 04:26:36;;;;;;;0.82;0.57;;;27.00;71.10;;;;;;5000076;28;20105;-74
2021/05/08 04:29:04;;;;;;;0.73;0.40;;;27.00;69.80;;;;;;4997098;28;20096;-73
2021/05/08 04:31:33;;;;;;;1.90;0.60;;;27.00;69.60;;;;;;4995894;28;20030;-73
2021/05/08 04:34:00;;;;;;;0.95;0.52;;;26.80;70.60;;;;;;4992252;28;20373;-73
2021/05/08 04:36:28;;;;;;;1.73;0.52;;;26.70;69.20;;;;;;4993161;28;20084;-75
2021/05/08 04:38:55;;;;;;;1.30;0.50;;;26.50;70.10;;;;;;4996645;28;20034;-75
2021/05/08 04:41:23;;;;;;;1.23;0.50;;;26.40;70.80;;;;;;5000334;28;20440;-74
2021/05/08 04:43:50;;;;;;;1.20;0.60;;;26.20;70.40;;;;;;4996214;28;20112;-74
2021/05/08 04:46:17;;;;;;;0.85;0.43;;;26.20;71.10;;;;;;4986635;28;20026;-74
2021/05/08 04:48:45;;;;;;;0.82;0.50;;;26.10;74.40;;;;;;4998024;28;20497;-73
2021/05/08 04:51:12;;;;;;;1.25;0.50;;;25.80;71.30;;;;;;4995098;28;20029;-73
2021/05/08 04:53:40;;;;;;;0.85;0.40;;;25.70;72.70;;;;;;4993632;28;20026;-75
2021/05/08 04:56:07;;;;;;;2.60;0.50;;;25.60;76.20;;;;;;4993430;28;20081;-73
2021/05/08 04:58:35;;;;;;;0.88;0.70;;;25.50;75.70;;;;;;4999231;28;20436;-77
2021/05/08 05:01:02;;;;;;;1.08;0.88;;;25.50;75.70;;;;;;4999543;28;20050;-74
2021/05/08 05:03:29;;;;;;;0.80;0.45;;;25.60;74.60;;;;;;4995444;28;20040;-75
2021/05/08 05:05:57;;;;;;;0.50;0.30;;;25.80;76.30;;;;;;4995278;28;20030;-73
2021/05/08 05:08:25;;;;;;;1.80;0.30;;;26.00;75.90;;;;;;5000469;28;20507;-74
2021/05/08 05:10:54;;;;;;;0.32;0.20;;;26.00;67.50;;;;;;4998690;28;20515;-74
2021/05/08 05:13:22;;;;;;;1.30;0.28;;;26.00;65.10;;;;;;4993531;28;20455;-74
2021/05/08 05:15:50;;;;;;;0.47;0.25;;;26.00;65.10;;;;;;4994683;28;20034;-74
2021/05/08 05:18:18;;;;;;;0.47;0.20;;;25.90;63.70;;;;;;4994553;28;20486;-75
2021/05/08 05:20:46;;;;;;;0.22;0.20;;;25.80;61.80;;;;;;4995366;28;20034;-75
2021/05/08 05:23:14;;;;;;;0.80;0.30;;;25.70;62.10;;;;;;4991642;28;20022;-74
2021/05/08 05:25:41;;;;;;;0.77;0.20;;;25.70;62.60;;;;;;4990709;28;20037;-74
2021/05/08 05:28:23;;;;;;;0.43;0.30;;;25.70;60.90;;;;;;4994377;28;20038;-73
2021/05/08 05:30:51;;;;;;;0.20;0.20;;;25.70;62.60;;;;;;4998521;28;20423;-73
2021/05/08 05:33:19;;;;;;;0.30;0.10;;;25.80;63.10;;;;;;4991470;28;20038;-72
2021/05/08 05:35:51;;;;;;;0.32;0.10;;;25.80;58.50;;;;;;4997205;28;20834;-72
2021/05/08 05:38:19;;;;;;;0.32;0.20;;;25.80;58.10;;;;;;4998997;28;20458;-73
2021/05/08 05:40:48;;;;;;;0.35;0.20;;;25.80;59.00;;;;;;4996475;28;20440;-72
2021/05/08 05:43:15;;;;;;;1.13;0.10;;;25.80;61.30;;;;;;4997792;28;20087;-73
2021/05/08 05:45:43;;;;;;;0.20;0.10;;;25.60;58.50;;;;;;4996542;28;20042;-72
2021/05/08 05:48:10;;;;;;;0.30;0.10;;;25.60;57.20;;;;;;4996696;28;20096;-73
2021/05/08 05:50:39;;;;;;;0.50;0.10;;;25.70;57.00;;;;;;4995985;28;20125;-75
2021/05/08 05:53:08;;;;;;;0.80;0.25;;;25.60;58.30;;;;;;4994046;28;20027;-74
2021/05/08 05:55:35;;;;;;;0.20;0.10;;;25.50;56.80;;;;;;4998014;28;20037;-75
2021/05/08 05:58:03;;;;;;;0.10;0.10;;;25.60;58.60;;;;;;4992028;28;20141;-75
2021/05/08 06:00:31;;;;;;;0.35;0.10;;;25.50;55.50;;;;;;4993176;28;20449;-75
2021/05/08 06:02:58;;;;;;;3.40;0.10;;;25.30;56.80;;;;;;4999384;28;20061;-74
2021/05/08 06:05:26;;;;;;;0.30;0.20;;;25.10;58.10;;;;;;4999036;28;20025;-74
2021/05/08 06:07:53;;;;;;;0.68;0.20;;;24.90;60.50;;;;;;5000667;28;20092;-75
2021/05/08 06:10:21;;;;;;;0.50;0.40;;;24.70;61.60;;;;;;4992341;28;20045;-73
2021/05/08 06:12:48;;;;;;;1.27;0.60;;;24.60;62.80;;;;;;4992547;28;20572;-73
2021/05/08 06:15:15;;;;;;;1.02;0.90;;;24.40;62.40;;;;;;4998243;28;20040;-73
2021/05/08 06:17:43;;;;;;;0.43;0.28;;;24.30;63.10;;;;;;4991134;28;20046;-74
2021/05/08 06:20:11;;;;;;;0.38;0.20;;;24.20;63.40;;;;;;4993878;28;20033;-73
2021/05/08 06:22:38;;;;;;;1.33;0.20;;;24.10;64.20;;;;;;4987719;28;20034;-73
2021/05/08 06:25:06;;;;;;;0.68;0.38;;;24.00;62.40;;;;;;4993678;28;20026;-74
2021/05/08 06:27:33;;;;;;;0.50;0.38;;;23.70;60.10;;;;;;4990476;28;20061;-74
2021/05/08 06:30:00;;;;;;;0.28;0.10;;;23.80;60.60;;;;;;4996827;28;20112;-75
2021/05/08 06:32:28;;;;;;;0.50;0.30;;;23.90;61.20;;;;;;4995521;28;20552;-75
2021/05/08 06:34:55;;;;;;;0.13;0.10;;;23.90;62.80;;;;;;4990365;28;20613;-73
2021/05/08 06:37:23;;;;;;;0.75;0.20;;;23.80;60.70;;;;;;4991061;28;20041;-73
2021/05/08 06:39:50;;;;;;;0.88;0.20;;;23.60;62.10;;;;;;4995008;28;20044;-74
2021/05/08 06:42:17;;;;;;;0.40;0.22;;;23.50;64.30;;;;;;4994560;28;20395;-73
2021/05/08 06:44:45;;;;;;;1.67;0.30;;;23.30;64.80;;;;;;4995740;28;20056;-74
2021/05/08 06:47:15;;;;;;;1.70;0.20;;;23.20;62.70;;;;;;4995393;28;20054;-74
2021/05/08 06:49:46;;;;;;;2.30;0.93;;;23.10;65.70;;;;;;5002319;28;20488;-74
2021/05/08 06:52:13;;;;;;;1.15;0.50;;;23.00;64.40;;;;;;4991880;28;20396;-74
2021/05/08 06:54:40;;;;;;;1.70;0.40;;;23.00;66.20;;;;;;4994797;28;20032;-73
2021/05/08 06:57:10;;;;;;;1.10;0.50;;;22.90;67.10;;;;;;4994494;28;20126;-75
2021/05/08 06:59:38;;;;;;;0.88;0.57;;;22.80;67.00;;;;;;4995167;28;20188;-74
2021/05/08 07:02:06;;;;;;;0.60;0.40;;;22.70;66.80;;;;;;5000723;28;20037;-75
2021/05/08 07:04:33;;;;;;;1.50;0.45;;;22.60;65.90;;;;;;4990666;28;20027;-73
2021/05/08 07:07:01;;;;;;;0.50;0.30;;;22.50;67.30;;;;;;4995161;28;20036;-73
2021/05/08 07:09:28;;;;;;;0.70;0.40;;;22.40;65.70;;;;;;4990840;28;20038;-74
2021/05/08 07:11:56;;;;;;;0.65;0.50;;;22.30;68.20;;;;;;4994781;28;20042;-74
2021/05/08 07:14:23;;;;;;;1.42;0.50;;;22.20;66.60;;;;;;4998510;28;20045;-74
2021/05/08 07:16:51;;;;;;;1.02;0.70;;;22.20;67.40;;;;;;4997631;28;20030;-72
2021/05/08 07:19:18;;;;;;;0.50;0.30;;;22.10;67.40;;;;;;4997448;28;20029;-72
2021/05/08 07:21:46;;;;;;;3.13;0.60;;;22.00;69.70;;;;;;4996624;28;20028;-72
2021/05/08 07:24:13;;;;;;;1.10;0.80;;;22.00;66.80;;;;;;4988647;28;20057;-73
2021/05/08 07:26:41;;;;;;;0.40;0.40;;;21.90;65.40;;;;;;4998519;28;20554;-74
2021/05/08 07:29:09;;;;;;;1.05;0.50;;;21.90;65.20;;;;;;4999906;28;20085;-75
2021/05/08 07:31:36;;;;;;;0.47;0.30;;;21.90;66.00;;;;;;5000998;28;20018;-74
2021/05/08 07:34:04;;;;;;;0.50;0.40;;;21.80;67.90;;;;;;4999925;28;20133;-75
2021/05/08 07:36:31;;;;;;;0.90;0.30;;;21.80;66.90;;;;;;4993888;28;20052;-73
2021/05/08 07:38:58;;;;;;;1.13;0.40;;;21.80;68.10;;;;;;4991162;28;20041;-73
2021/05/08 07:41:26;;;;;;;0.90;0.50;;;21.80;69.70;;;;;;4991657;28;20031;-72
2021/05/08 07:43:53;;;;;;;1.88;0.80;;;21.70;68.60;;;;;;4992777;28;20045;-75
2021/05/08 07:46:21;;;;;;;2.20;1.45;;;21.70;69.30;;;;;;4994198;28;20117;-75
2021/05/08 07:48:48;;;;;;;0.82;0.40;;;21.70;68.70;;;;;;4993684;28;20042;-73
2021/05/08 07:51:15;;;;;;;0.77;0.60;;;21.60;70.20;;;;;;4998072;28;20052;-74
2021/05/08 07:53:43;;;;;;;1.33;0.73;;;21.60;69.90;;;;;;4994245;28;20026;-74
2021/05/08 07:56:11;;;;;;;2.85;1.15;;;21.50;70.10;;;;;;4996582;28;20024;-75
2021/05/08 07:58:38;;;;;;;1.80;0.85;;;21.50;68.60;;;;;;4997898;28;20525;-75
2021/05/08 08:01:05;;;;;;;2.78;0.70;;;21.40;69.50;;;;;;4997259;28;20038;-73
2021/05/08 08:03:35;;;;;;;2.83;0.93;;;21.40;69.40;;;;;;5002276;28;20057;-76
2021/05/08 08:06:03;;;;;;;1.63;0.80;;;21.40;69.40;;;;;;4994018;28;21538;-72
2021/05/08 08:08:30;;;;;;;0.98;0.70;;;21.40;70.80;;;;;;4998618;28;20025;-73
2021/05/08 08:10:58;;;;;;;4.68;2.38;;;21.40;70.90;;;;;;4992409;28;20545;-73
2021/05/08 08:13:26;;;;;;;1.67;1.13;;;21.40;70.80;;;;;;4997525;28;21488;-74
2021/05/08 08:15:53;;;;;;;2.55;1.30;;;21.40;72.60;;;;;;4993076;28;20023;-76
2021/05/08 08:18:25;;;;;;;1.27;0.57;;;21.40;72.80;;;;;;4996319;28;20516;-73
2021/05/08 08:20:53;;;;;;;2.67;0.73;;;21.40;72.90;;;;;;4996030;28;20018;-74
2021/05/08 08:23:21;;;;;;;1.50;0.80;;;21.30;71.30;;;;;;5000133;28;20469;-74
2021/05/08 08:25:50;;;;;;;2.25;0.63;;;21.30;74.20;;;;;;4990436;28;20058;-77
2021/05/08 08:28:18;;;;;;;1.63;0.90;;;21.30;76.20;;;;;;4992228;28;20076;-76
2021/05/08 08:30:45;;;;;;;1.77;0.70;;;21.20;76.60;;;;;;4997881;28;20092;-75
2021/05/08 08:33:12;;;;;;;1.02;0.65;;;21.20;77.20;;;;;;4995282;28;20050;-76
2021/05/08 08:35:40;;;;;;;2.63;0.80;;;21.10;78.70;;;;;;4995735;28;20044;-74
2021/05/08 08:38:08;;;;;;;1.95;0.98;;;21.10;79.40;;;;;;4996864;28;20041;-75
2021/05/08 08:40:36;;;;;;;1.67;0.90;;;21.10;80.00;;;;;;4991661;28;20042;-77
2021/05/08 08:43:04;;;;;;;1.30;0.88;;;21.00;79.40;;;;;;4991466;28;20580;-75
2021/05/08 08:45:32;;;;;;;1.42;0.95;;;21.00;80.90;;;;;;4995637;28;20025;-75
2021/05/08 08:48:00;;;;;;;3.33;1.27;;;21.00;80.40;;;;;;4992344;28;20026;-75
2021/05/08 08:50:30;;;;;;;2.65;2.08;;;20.90;83.20;;;;;;4992511;28;20053;-75
2021/05/08 08:52:57;;;;;;;4.15;2.65;;;20.90;83.10;;;;;;5005008;28;20040;-75
2021/05/08 08:55:24;;;;;;;2.45;1.67;;;20.80;82.50;;;;;;4991364;28;20031;-76
2021/05/08 08:57:52;;;;;;;3.17;1.42;;;20.80;80.40;;;;;;4994301;28;20607;-77
2021/05/08 09:00:20;;;;;;;1.00;0.90;;;20.80;80.00;;;;;;4990666;28;20106;-75
2021/05/08 09:02:50;;;;;;;1.65;1.02;;;20.80;78.10;;;;;;4995450;28;20070;-76
2021/05/08 09:05:25;;;;;;;1.13;0.70;;;20.80;79.30;;;;;;4997073;28;20057;-73
2021/05/08 09:07:54;;;;;;;2.17;0.60;;;20.90;77.70;;;;;;4997982;28;20033;-74
2021/05/08 09:10:26;;;;;;;1.48;0.60;;;20.90;75.20;;;;;;4992269;28;20060;-74
2021/05/08 09:12:56;;;;;;;1.77;0.68;;;20.80;75.30;;;;;;5001488;28;20548;-76
2021/05/08 09:15:41;;;;;;;2.28;1.08;;;20.80;76.30;;;;;;5000137;28;20021;-74
2021/05/08 09:18:11;;;;;;;10.07;5.85;;;20.80;75.90;;;;;;4998617;28;20128;-74
2021/05/08 09:20:50;;;;;;;7.50;4.60;;;20.90;74.50;;;;;;4999414;28;20061;-77
2021/05/08 09:23:20;;;;;;;8.35;5.15;;;20.80;75.70;;;;;;5001248;28;20473;-81
2021/05/08 09:26:09;;;;;;;3.65;2.03;;;20.80;74.10;;;;;;4999156;28;20117;-83
2021/05/08 09:28:39;;;;;;;2.92;1.73;;;20.80;74.00;;;;;;4993883;28;20026;-83
2021/05/08 09:31:12;;;;;;;2.35;1.25;;;20.70;74.20;;;;;;5001073;28;20113;-85
2021/05/08 09:33:39;;;;;;;3.60;1.13;;;20.70;74.90;;;;;;4999183;28;20019;-83
2021/05/08 09:36:13;;;;;;;3.80;1.63;;;20.60;74.50;;;;;;4990090;28;20084;-84
2021/05/08 09:38:42;;;;;;;5.65;2.08;;;20.50;74.80;;;;;;4993258;28;20042;-82
2021/05/08 09:41:12;;;;;;;4.15;1.38;;;20.50;75.80;;;;;;4994912;28;20494;-83
2021/05/08 09:43:43;;;;;;;3.08;1.17;;;20.50;76.20;;;;;;4992747;28;20105;-82
2021/05/08 09:46:25;;;;;;;2.08;1.10;;;20.50;76.40;;;;;;4991759;28;20018;-82
2021/05/08 09:49:10;;;;;;;1.98;1.45;;;20.40;78.60;;;;;;4993599;28;20501;-82
2021/05/08 09:51:38;;;;;;;2.90;1.95;;;20.40;79.20;;;;;;4993972;28;20033;-81
2021/05/08 09:54:15;;;;;;;10.27;5.45;;;20.30;81.00;;;;;;4995418;28;20485;-82
2021/05/08 09:56:48;;;;;;;31.85;19.23;;;20.30;79.40;;;;;;4992050;28;20060;-84
2021/05/08 09:59:34;;;;;;;26.23;14.38;;;20.20;79.00;;;;;;4994398;28;20030;-81
2021/05/08 10:02:04;;;;;;;17.45;11.10;;;20.20;80.20;;;;;;4992813;28;20026;-82
2021/05/08 10:04:39;;;;;;;15.80;9.82;;;20.20;81.70;;;;;;4998998;28;20049;-82
2021/05/08 10:07:13;;;;;;;18.92;11.32;;;20.10;81.20;;;;;;4993188;28;20041;-82
2021/05/08 10:09:43;;;;;;;16.33;9.68;;;20.00;81.20;;;;;;5003140;28;20036;-82
2021/05/08 10:12:21;;;;;;;14.85;9.00;;;20.00;82.40;;;;;;4998474;28;20062;-80
2021/05/08 10:14:54;;;;;;;6.75;4.47;;;20.00;82.20;;;;;;4989633;28;20037;-82
2021/05/08 10:17:29;;;;;;;4.07;2.10;;;19.90;83.00;;;;;;5001502;28;20042;-85
2021/05/08 10:20:10;;;;;;;2.20;1.53;;;19.90;82.10;;;;;;4998287;28;20023;-84
2021/05/08 10:22:46;;;;;;;2.03;0.80;;;19.90;81.40;;;;;;5003109;28;20022;-85
2021/05/08 10:25:15;;;;;;;2.05;0.93;;;19.90;81.20;;;;;;4998768;28;20113;-87
2021/05/08 10:27:44;;;;;;;1.27;0.77;;;19.90;82.10;;;;;;4996812;28;20050;-85
2021/05/08 10:30:14;;;;;;;1.80;0.70;;;19.80;82.20;;;;;;4999377;28;20032;-80
2021/05/08 10:32:44;;;;;;;1.02;0.77;;;19.80;82.10;;;;;;4997499;28;20042;-83
2021/05/08 10:35:14;;;;;;;1.08;0.60;;;19.80;82.80;;;;;;4996971;28;20026;-80
2021/05/08 10:38:17;;;;;;;0.80;0.50;;;19.80;84.00;;;;;;4994790;28;20068;-79
2021/05/08 10:41:03;;;;;;;1.52;0.88;;;19.70;85.70;;;;;;4995386;28;20038;-79
2021/05/08 10:43:52;;;;;;;3.10;1.80;;;19.70;85.70;;;;;;4991477;28;20188;-84
2021/05/08 10:46:23;;;;;;;1.52;0.82;;;19.70;83.90;;;;;;4994138;28;20357;-81
2021/05/08 10:49:09;;;;;;;0.73;0.40;;;19.60;84.20;;;;;;4995991;28;20172;-81
2021/05/08 10:51:55;;;;;;;3.83;0.75;;;19.60;82.80;;;;;;4991193;28;20071;-84
2021/05/08 10:54:52;;;;;;;1.15;0.45;;;19.60;82.80;;;;;;4995583;28;20081;-81
2021/05/08 10:57:23;;;;;;;1.70;0.50;;;19.50;82.60;;;;;;4996291;28;20460;-82
2021/05/08 11:00:07;;;;;;;0.95;0.40;;;19.50;83.00;;;;;;4993786;28;20431;-82
2021/05/08 11:02:44;;;;;;;2.25;0.65;;;19.40;83.00;;;;;;4989468;28;20605;-81
2021/05/08 11:05:22;;;;;;;1.35;0.50;;;19.50;82.70;;;;;;4997779;28;20557;-82
2021/05/08 11:07:49;;;;;;;0.57;0.20;;;19.40;82.70;;;;;;4994120;28;20481;-80
2021/05/08 11:10:37;;;;;;;2.60;0.40;;;19.40;82.30;;;;;;4993219;28;20084;-81
2021/05/08 11:13:14;;;;;;;1.00;0.57;;;19.40;83.20;;;;;;4993561;28;20026;-78
2021/05/08 11:16:02;;;;;;;1.48;0.75;;;19.40;82.80;;;;;;4990974;28;20113;-80
2021/05/08 11:18:33;;;;;;;0.90;0.60;;;19.40;83.30;;;;;;4995372;28;20038;-80
2021/05/08 11:21:27;;;;;;;0.95;0.68;;;19.40;84.10;;;;;;5000881;28;20459;-78
2021/05/08 11:24:01;;;;;;;2.47;1.30;;;19.40;83.70;;;;;;4997833;28;20029;-80
2021/05/08 11:26:29;;;;;;;3.97;1.67;;;19.30;83.10;;;;;;4994632;28;20488;-82
2021/05/08 11:28:56;;;;;;;2.55;1.50;;;19.30;83.10;;;;;;4991938;28;20041;-83
2021/05/08 11:31:30;;;;;;;2.65;1.15;;;19.30;83.10;;;;;;5000440;28;20034;-80
2021/05/08 11:34:08;;;;;;;3.05;1.30;;;19.30;83.30;;;;;;5002278;28;20612;-81
2021/05/08 11:36:55;;;;;;;2.50;1.10;;;19.20;83.60;;;;;;4993106;28;20034;-82
2021/05/08 11:39:27;;;;;;;2.20;0.85;;;19.20;83.70;;;;;;4991557;28;20035;-82
2021/05/08 11:42:13;;;;;;;2.60;0.90;;;19.20;84.10;;;;;;4999539;28;20499;-81
2021/05/08 11:44:45;;;;;;;3.22;1.20;;;19.10;84.80;;;;;;4995315;28;20045;-80
2021/05/08 11:50:04;;;;;;;1.88;1.30;;;19.10;85.80;;;;;;4995204;28;20038;-82
2021/05/08 11:52:39;;;;;;;1.73;1.10;;;19.10;86.50;;;;;;4986697;28;20026;-81
2021/05/08 11:55:19;;;;;;;2.13;1.65;;;19.10;87.00;;;;;;4997877;28;20030;-84
2021/05/08 11:58:00;;;;;;;1.50;0.70;;;19.00;87.20;;;;;;4989959;28;20708;-82
2021/05/08 12:00:31;;;;;;;2.35;0.70;;;19.00;86.00;;;;;;4998979;28;20106;-83
2021/05/08 12:03:10;;;;;;;1.15;0.50;;;19.00;86.70;;;;;;4992889;28;20050;-81
2021/05/08 12:05:38;;;;;;;1.25;0.95;;;18.90;87.40;;;;;;4996848;28;20041;-80
2021/05/08 12:08:07;;;;;;;0.65;0.52;;;18.90;87.50;;;;;;4993151;28;20073;-78
2021/05/08 12:10:39;;;;;;;1.40;0.80;;;18.90;88.50;;;;;;4997745;28;20061;-79
2021/05/08 12:13:07;;;;;;;1.75;1.10;;;18.90;89.60;;;;;;5000053;28;20109;-80
2021/05/08 12:15:37;;;;;;;2.97;1.30;;;18.80;89.20;;;;;;4992167;28;20385;-79
2021/05/08 12:18:07;;;;;;;2.97;1.33;;;18.70;87.60;;;;;;4994335;28;20041;-80
2021/05/08 12:20:43;;;;;;;1.27;1.00;;;18.60;87.90;;;;;;4992175;28;20358;-82
2021/05/08 12:23:14;;;;;;;4.20;1.40;;;18.60;89.30;;;;;;5001523;28;20061;-81
2021/05/08 12:25:42;;;;;;;2.25;1.13;;;18.60;90.40;;;;;;4989615;28;20536;-80
2021/05/08 12:28:19;;;;;;;3.55;0.82;;;18.50;91.30;;;;;;4984933;28;20054;-79
2021/05/08 12:30:51;;;;;;;1.00;0.70;;;18.40;92.10;;;;;;4994647;28;20049;-81
2021/05/08 12:33:25;;;;;;;1.80;1.00;;;18.30;92.00;;;;;;4993206;28;20055;-79
2021/05/08 12:35:55;;;;;;;1.23;0.80;;;18.20;92.40;;;;;;4995446;28;20030;-82
2021/05/08 12:38:22;;;;;;;1.58;0.80;;;18.20;92.60;;;;;;4994098;28;20042;-79
2021/05/08 12:40:50;;;;;;;4.25;1.10;;;18.20;92.60;;;;;;4996480;28;20022;-78
2021/05/08 12:43:31;;;;;;;4.57;1.40;;;18.10;92.70;;;;;;4990607;28;20030;-82
2021/05/08 12:46:14;;;;;;;1.85;0.98;;;18.10;92.90;;;;;;4991115;28;20030;-82
2021/05/08 12:48:44;;;;;;;2.28;1.77;;;18.00;92.60;;;;;;4995816;28;20045;-79
2021/05/08 12:51:30;;;;;;;1.73;1.63;;;17.90;92.30;;;;;;4996291;28;20448;-80
2021/05/08 12:54:20;;;;;;;2.15;1.42;;;17.90;92.50;;;;;;4992648;28;20030;-81
2021/05/08 12:56:48;;;;;;;1.77;1.27;;;18.00;92.60;;;;;;4991844;28;20062;-81
2021/05/08 12:59:30;;;;;;;2.17;0.90;;;18.00;92.40;;;;;;4996176;28;20393;-83
2021/05/08 13:02:22;;;;;;;1.25;0.45;;;18.00;92.00;;;;;;4988883;28;20035;-82
2021/05/08 13:04:51;;;;;;;1.50;0.65;;;18.00;92.20;;;;;;4986966;28;20083;-83